sensor_id;sensor_type;location;lat;lon;timestamp;pressure;altitude;pressure_sealevel;temperature;humidity
62122;BME280;48108;47.532;19.084;2022-08-03T05:56:34;100618.66;;;22.54;68.38
62122;BME280;48108;47.532;19.084;2022-08-03T05:59:52;100618.38;;;22.72;67.74
62122;BME280;48108;47.532;19.084;2022-08-03T06:03:13;100622.00;;;22.78;67.59
62122;BME280;48108;47.532;19.084;2022-08-03T06:06:15;100620.69;;;22.97;67.06
62122;BME280;48108;47.532;19.084;2022-08-03T06:09:18;100621.69;;;23.13;66.33
62122;BME280;48108;47.532;19.084;2022-08-03T06:12:21;100621.69;;;23.35;65.68
62122;BME280;48108;47.532;19.084;2022-08-03T06:15:24;100624.91;;;23.49;64.93
62122;BME280;48108;47.532;19.084;2022-08-03T06:18:27;100626.84;;;23.75;64.12
62122;BME280;48108;47.532;19.084;2022-08-03T06:21:29;100629.22;;;23.94;63.13
62122;BME280;48108;47.532;19.084;2022-08-03T06:24:32;100633.28;;;24.13;62.23
62122;BME280;48108;47.532;19.084;2022-08-03T06:27:35;100633.91;;;24.26;61.15
62122;BME280;48108;47.532;19.084;2022-08-03T06:30:41;100628.78;;;24.39;60.50
62122;BME280;48108;47.532;19.084;2022-08-03T06:33:44;100628.47;;;24.36;60.57
62122;BME280;48108;47.532;19.084;2022-08-03T06:37:07;100626.97;;;24.50;60.39
62122;BME280;48108;47.532;19.084;2022-08-03T06:40:17;100626.53;;;24.63;59.71
62122;BME280;48108;47.532;19.084;2022-08-03T06:43:27;100629.97;;;24.91;59.50
62122;BME280;48108;47.532;19.084;2022-08-03T06:46:37;100634.00;;;25.16;58.92
62122;BME280;48108;47.532;19.084;2022-08-03T06:49:39;100632.12;;;25.31;57.22
62122;BME280;48108;47.532;19.084;2022-08-03T06:52:43;100633.53;;;25.44;56.55
62122;BME280;48108;47.532;19.084;2022-08-03T06:55:45;100627.25;;;25.54;55.20
62122;BME280;48108;47.532;19.084;2022-08-03T06:58:55;100627.00;;;25.61;55.68
62122;BME280;48108;47.532;19.084;2022-08-03T07:01:58;100626.47;;;25.79;54.85
62122;BME280;48108;47.532;19.084;2022-08-03T07:05:00;100632.88;;;25.95;54.60
62122;BME280;48108;47.532;19.084;2022-08-03T07:08:04;100632.88;;;26.00;52.94
62122;BME280;48108;47.532;19.084;2022-08-03T07:11:07;100625.44;;;26.16;53.05
62122;BME280;48108;47.532;19.084;2022-08-03T07:14:10;100625.72;;;26.40;51.23
62122;BME280;48108;47.532;19.084;2022-08-03T07:17:13;100623.78;;;26.45;51.70
62122;BME280;48108;47.532;19.084;2022-08-03T07:20:16;100631.50;;;26.49;51.08
62122;BME280;48108;47.532;19.084;2022-08-03T07:23:19;100631.50;;;26.69;50.76
62122;BME280;48108;47.532;19.084;2022-08-03T07:26:38;100630.37;;;26.85;50.26
62122;BME280;48108;47.532;19.084;2022-08-03T07:29:40;100627.31;;;26.97;50.03
62122;BME280;48108;47.532;19.084;2022-08-03T07:32:43;100635.28;;;26.99;49.98
62122;BME280;48108;47.532;19.084;2022-08-03T07:35:52;100629.22;;;26.97;49.21
62122;BME280;48108;47.532;19.084;2022-08-03T07:38:54;100623.41;;;27.03;49.29
62122;BME280;48108;47.532;19.084;2022-08-03T07:41:59;100629.19;;;27.07;50.11
62122;BME280;48108;47.532;19.084;2022-08-03T07:45:02;100628.06;;;27.18;49.32
62122;BME280;48108;47.532;19.084;2022-08-03T07:48:05;100626.87;;;27.40;48.97
62122;BME280;48108;47.532;19.084;2022-08-03T07:51:14;100622.12;;;27.50;48.44
62122;BME280;48108;47.532;19.084;2022-08-03T07:54:16;100620.63;;;27.68;48.13
62122;BME280;48108;47.532;19.084;2022-08-03T07:57:19;100623.87;;;27.86;48.08
62122;BME280;48108;47.532;19.084;2022-08-03T08:00:22;100617.41;;;27.95;47.84
62122;BME280;48108;47.532;19.084;2022-08-03T08:03:25;100616.50;;;28.05;46.67
62122;BME280;48108;47.532;19.084;2022-08-03T08:06:28;100619.03;;;28.01;46.89
62122;BME280;48108;47.532;19.084;2022-08-03T08:09:31;100624.31;;;27.98;46.40
62122;BME280;48108;47.532;19.084;2022-08-03T08:12:34;100615.38;;;28.11;46.09
62122;BME280;48108;47.532;19.084;2022-08-03T08:15:37;100612.50;;;28.21;46.00
62122;BME280;48108;47.532;19.084;2022-08-03T08:18:45;100612.09;;;28.04;45.68
62122;BME280;48108;47.532;19.084;2022-08-03T08:21:47;100620.56;;;28.18;46.00
62122;BME280;48108;47.532;19.084;2022-08-03T08:25:04;100616.06;;;28.27;45.15
62122;BME280;48108;47.532;19.084;2022-08-03T08:28:07;100620.81;;;28.56;44.81
62122;BME280;48108;47.532;19.084;2022-08-03T08:31:29;100622.84;;;28.74;44.18
62122;BME280;48108;47.532;19.084;2022-08-03T08:34:32;100620.31;;;28.48;43.85
62122;BME280;48108;47.532;19.084;2022-08-03T08:37:35;100615.50;;;28.59;43.33
62122;BME280;48108;47.532;19.084;2022-08-03T08:40:39;100622.78;;;28.55;43.34
62122;BME280;48108;47.532;19.084;2022-08-03T08:43:44;100618.09;;;28.51;43.00
62122;BME280;48108;47.532;19.084;2022-08-03T08:46:47;100614.88;;;28.67;43.70
62122;BME280;48108;47.532;19.084;2022-08-03T08:49:54;100612.47;;;28.85;42.81
62122;BME280;48108;47.532;19.084;2022-08-03T08:53:12;100614.94;;;28.86;42.13
62122;BME280;48108;47.532;19.084;2022-08-03T08:56:23;100606.22;;;28.98;42.77
62122;BME280;48108;47.532;19.084;2022-08-03T08:59:31;100608.03;;;29.32;41.04
62122;BME280;48108;47.532;19.084;2022-08-03T09:02:50;100602.72;;;29.17;41.12
62122;BME280;48108;47.532;19.084;2022-08-03T09:05:54;100598.16;;;29.26;42.47
62122;BME280;48108;47.532;19.084;2022-08-03T09:08:58;100604.28;;;29.23;41.05
62122;BME280;48108;47.532;19.084;2022-08-03T09:12:00;100600.16;;;29.20;41.20
62122;BME280;48108;47.532;19.084;2022-08-03T09:15:28;100588.31;;;29.33;41.64
62122;BME280;48108;47.532;19.084;2022-08-03T09:18:32;100597.28;;;29.49;41.19
62122;BME280;48108;47.532;19.084;2022-08-03T09:21:35;100594.00;;;29.66;40.71
62122;BME280;48108;47.532;19.084;2022-08-03T09:24:56;100587.41;;;29.81;41.02
62122;BME280;48108;47.532;19.084;2022-08-03T09:28:19;100590.31;;;29.71;40.46
62122;BME280;48108;47.532;19.084;2022-08-03T09:31:44;100591.75;;;29.87;40.44
62122;BME280;48108;47.532;19.084;2022-08-03T09:34:50;100586.00;;;29.97;38.91
62122;BME280;48108;47.532;19.084;2022-08-03T09:41:18;100577.72;;;30.44;38.25
62122;BME280;48108;47.532;19.084;2022-08-03T09:44:32;100585.47;;;30.61;37.68
62122;BME280;48108;47.532;19.084;2022-08-03T09:47:36;100584.44;;;30.43;37.54
62122;BME280;48108;47.532;19.084;2022-08-03T09:50:49;100574.12;;;30.43;37.78
62122;BME280;48108;47.532;19.084;2022-08-03T09:54:12;100573.72;;;30.50;38.23
62122;BME280;48108;47.532;19.084;2022-08-03T09:57:23;100569.94;;;30.60;37.29
62122;BME280;48108;47.532;19.084;2022-08-03T10:00:27;100573.22;;;30.76;35.69
62122;BME280;48108;47.532;19.084;2022-08-03T10:03:32;100568.72;;;31.07;35.08
62122;BME280;48108;47.532;19.084;2022-08-03T10:06:36;100562.63;;;30.91;35.27
62122;BME280;48108;47.532;19.084;2022-08-03T10:09:55;100566.66;;;31.13;36.17
62122;BME280;48108;47.532;19.084;2022-08-03T10:12:58;100555.72;;;31.16;35.27
62122;BME280;48108;47.532;19.084;2022-08-03T10:16:01;100548.00;;;31.27;34.63
62122;BME280;48108;47.532;19.084;2022-08-03T10:19:25;100548.28;;;31.39;34.76
62122;BME280;48108;47.532;19.084;2022-08-03T10:22:32;100544.69;;;31.61;35.01
62122;BME280;48108;47.532;19.084;2022-08-03T10:25:37;100548.50;;;31.88;33.85
62122;BME280;48108;47.532;19.084;2022-08-03T10:28:48;100543.00;;;32.19;34.05
62122;BME280;48108;47.532;19.084;2022-08-03T10:31:57;100536.16;;;32.25;33.19
62122;BME280;48108;47.532;19.084;2022-08-03T10:35:06;100534.84;;;31.78;32.86
62122;BME280;48108;47.532;19.084;2022-08-03T10:38:28;100529.47;;;31.81;33.45
62122;BME280;48108;47.532;19.084;2022-08-03T10:41:36;100536.88;;;32.40;33.83
62122;BME280;48108;47.532;19.084;2022-08-03T10:44:41;100539.09;;;32.51;32.14
62122;BME280;48108;47.532;19.084;2022-08-03T10:47:46;100533.81;;;32.90;31.49
62122;BME280;48108;47.532;19.084;2022-08-03T10:50:50;100523.38;;;33.22;30.60
62122;BME280;48108;47.532;19.084;2022-08-03T10:53:53;100516.84;;;33.17;30.68
62122;BME280;48108;47.532;19.084;2022-08-03T10:56:57;100510.91;;;33.45;31.53
62122;BME280;48108;47.532;19.084;2022-08-03T11:00:24;100515.00;;;34.00;30.85
62122;BME280;48108;47.532;19.084;2022-08-03T11:03:31;100509.91;;;33.93;29.74
62122;BME280;48108;47.532;19.084;2022-08-03T11:06:34;100503.22;;;33.59;29.96
62122;BME280;48108;47.532;19.084;2022-08-03T11:09:40;100501.72;;;33.88;29.78
62122;BME280;48108;47.532;19.084;2022-08-03T11:12:44;100500.91;;;34.43;29.59
62122;BME280;48108;47.532;19.084;2022-08-03T11:15:50;100496.69;;;34.96;28.23
62122;BME280;48108;47.532;19.084;2022-08-03T11:18:55;100485.09;;;35.49;27.51
62122;BME280;48108;47.532;19.084;2022-08-03T11:21:58;100482.41;;;36.06;25.97
62122;BME280;48108;47.532;19.084;2022-08-03T11:25:01;100486.06;;;36.93;24.92
62122;BME280;48108;47.532;19.084;2022-08-03T11:28:23;100485.38;;;37.36;24.15
62122;BME280;48108;47.532;19.084;2022-08-03T11:35:21;100472.97;;;37.94;22.81
62122;BME280;48108;47.532;19.084;2022-08-03T11:38:25;100472.88;;;38.69;22.58
62122;BME280;48108;47.532;19.084;2022-08-03T11:41:32;100471.94;;;38.81;21.60
62122;BME280;48108;47.532;19.084;2022-08-03T11:44:46;100457.91;;;39.00;21.06
62122;BME280;48108;47.532;19.084;2022-08-03T11:47:53;100458.50;;;39.87;20.56
62122;BME280;48108;47.532;19.084;2022-08-03T11:50:56;100462.09;;;40.57;19.59
62122;BME280;48108;47.532;19.084;2022-08-03T11:54:00;100454.41;;;41.07;18.24
62122;BME280;48108;47.532;19.084;2022-08-03T11:57:04;100453.63;;;41.10;18.82
62122;BME280;48108;47.532;19.084;2022-08-03T12:00:28;100458.88;;;42.24;18.13
62122;BME280;48108;47.532;19.084;2022-08-03T12:03:33;100450.06;;;42.84;17.55
62122;BME280;48108;47.532;19.084;2022-08-03T12:06:36;100450.84;;;42.81;16.58
62122;BME280;48108;47.532;19.084;2022-08-03T12:10:08;100447.28;;;42.98;16.22
62122;BME280;48108;47.532;19.084;2022-08-03T12:13:12;100447.19;;;42.77;16.75
62122;BME280;48108;47.532;19.084;2022-08-03T12:16:38;100443.91;;;41.79;17.64
62122;BME280;48108;47.532;19.084;2022-08-03T12:19:41;100445.78;;;37.98;21.38
62122;BME280;48108;47.532;19.084;2022-08-03T12:22:44;100445.38;;;36.50;22.82
62122;BME280;48108;47.532;19.084;2022-08-03T12:25:47;100445.41;;;35.80;24.07
62122;BME280;48108;47.532;19.084;2022-08-03T12:28:51;100438.81;;;37.07;22.80
62122;BME280;48108;47.532;19.084;2022-08-03T12:31:53;100422.38;;;39.74;19.64
62122;BME280;48108;47.532;19.084;2022-08-03T12:34:58;100418.91;;;42.29;17.77
62122;BME280;48108;47.532;19.084;2022-08-03T12:38:21;100417.50;;;43.33;16.89
62122;BME280;48108;47.532;19.084;2022-08-03T12:41:32;100415.97;;;43.75;15.96
62122;BME280;48108;47.532;19.084;2022-08-03T12:44:36;100415.88;;;43.36;16.35
62122;BME280;48108;47.532;19.084;2022-08-03T12:48:09;100407.78;;;42.54;16.88
62122;BME280;48108;47.532;19.084;2022-08-03T12:51:13;100411.91;;;40.43;19.01
62122;BME280;48108;47.532;19.084;2022-08-03T12:54:20;100407.75;;;41.54;18.60
62122;BME280;48108;47.532;19.084;2022-08-03T12:57:41;100400.53;;;42.05;18.14
62122;BME280;48108;47.532;19.084;2022-08-03T13:00:54;100408.34;;;39.15;20.44
62122;BME280;48108;47.532;19.084;2022-08-03T13:03:57;100406.37;;;37.66;22.13
62122;BME280;48108;47.532;19.084;2022-08-03T13:07:07;100406.28;;;37.62;21.94
62122;BME280;48108;47.532;19.084;2022-08-03T13:10:30;100407.16;;;40.01;19.58
62122;BME280;48108;47.532;19.084;2022-08-03T13:13:37;100397.69;;;42.01;17.41
62122;BME280;48108;47.532;19.084;2022-08-03T13:16:39;100388.78;;;43.45;15.95
62122;BME280;48108;47.532;19.084;2022-08-03T13:19:42;100382.69;;;44.65;15.08
62122;BME280;48108;47.532;19.084;2022-08-03T13:22:46;100384.88;;;45.90;14.05
62122;BME280;48108;47.532;19.084;2022-08-03T13:25:49;100369.72;;;46.01;13.42
62122;BME280;48108;47.532;19.084;2022-08-03T13:28:57;100369.28;;;46.81;13.03
